createdAt,value
2023-02-15T00:00:17.256Z,60.66
2023-02-15T00:02:45.710Z,60.89
2023-02-15T00:05:14.027Z,61.30
2023-02-15T00:07:42.093Z,61.38
2023-02-15T00:10:13.030Z,61.50
2023-02-15T00:12:42.626Z,60.79
2023-02-15T00:15:12.434Z,60.04
2023-02-15T00:17:40.607Z,59.45
2023-02-15T00:20:09.720Z,59.23
2023-02-15T00:22:37.997Z,58.93
2023-02-15T00:25:06.794Z,58.78
2023-02-15T00:27:37.841Z,58.68
2023-02-15T00:30:09.375Z,58.77
2023-02-15T00:32:37.897Z,59.09
2023-02-15T00:35:07.808Z,59.27
2023-02-15T00:37:35.899Z,59.74
2023-02-15T00:40:05.700Z,59.72
2023-02-15T00:42:33.900Z,59.96
2023-02-15T00:45:01.987Z,60.27
2023-02-15T00:47:31.722Z,59.95
2023-02-15T00:49:59.708Z,59.66
2023-02-15T00:52:27.694Z,59.64
2023-02-15T00:54:57.743Z,59.08
2023-02-15T00:57:25.911Z,58.86
2023-02-15T00:59:53.981Z,58.71
2023-02-15T01:02:22.300Z,58.59
2023-02-15T01:04:51.839Z,58.51
2023-02-15T01:07:19.934Z,58.37
2023-02-15T01:09:50.209Z,58.31
2023-02-15T01:12:18.145Z,58.17
2023-02-15T01:14:51.291Z,58.14
2023-02-15T01:17:21.220Z,58.20
2023-02-15T01:19:49.129Z,58.28
2023-02-15T01:22:18.545Z,58.28
2023-02-15T01:24:47.001Z,58.24
2023-02-15T01:27:15.225Z,58.15
2023-02-15T01:29:43.600Z,58.63
2023-02-15T01:32:12.376Z,58.36
2023-02-15T01:34:40.469Z,58.32
2023-02-15T01:37:08.458Z,58.50
2023-02-15T01:39:38.165Z,58.59
2023-02-15T01:42:06.208Z,58.69
2023-02-15T01:44:50.828Z,58.64
2023-02-15T01:47:28.399Z,59.34
2023-02-15T01:50:03.266Z,58.95
2023-02-15T01:52:32.096Z,58.87
2023-02-15T01:55:01.509Z,58.86
2023-02-15T01:57:31.525Z,59.26
2023-02-15T02:00:02.776Z,59.86
2023-02-15T02:02:41.489Z,60.23
2023-02-15T02:05:10.603Z,60.32
2023-02-15T02:07:41.751Z,60.46
2023-02-15T02:10:15.454Z,60.72
2023-02-15T02:12:46.256Z,60.67
2023-02-15T02:15:15.325Z,60.49
2023-02-15T02:17:56.591Z,60.61
2023-02-15T02:20:48.119Z,60.65
2023-02-15T02:23:34.619Z,60.96
2023-02-15T02:26:34.670Z,61.24
2023-02-15T02:29:40.543Z,61.20
2023-02-15T02:32:30.589Z,61.40
2023-02-15T02:35:04.599Z,61.40
2023-02-15T02:37:39.355Z,61.22
2023-02-15T02:40:15.296Z,61.03
2023-02-15T02:42:46.263Z,60.98
2023-02-15T02:45:22.106Z,61.07
2023-02-15T02:47:55.114Z,61.21
2023-02-15T02:50:29.104Z,61.09
2023-02-15T02:52:58.986Z,61.19
2023-02-15T02:55:31.411Z,61.38
2023-02-15T02:58:05.188Z,61.49
2023-02-15T03:00:38.204Z,61.22
2023-02-15T03:03:11.980Z,61.18
2023-02-15T03:05:46.008Z,61.39
2023-02-15T03:08:22.954Z,61.44
2023-02-15T03:10:55.579Z,61.58
2023-02-15T03:13:24.886Z,61.59
2023-02-15T03:16:12.415Z,61.42
2023-02-15T03:18:45.403Z,61.17
2023-02-15T03:21:23.208Z,61.10
2023-02-15T03:23:56.729Z,60.86
2023-02-15T03:26:31.953Z,60.87
2023-02-15T03:29:02.457Z,60.89
2023-02-15T03:31:35.370Z,60.97
2023-02-15T03:34:08.391Z,60.86
2023-02-15T03:36:45.716Z,60.86
2023-02-15T03:39:20.957Z,61.06
2023-02-15T03:41:56.805Z,60.96
2023-02-15T03:44:30.279Z,61.25
2023-02-15T03:47:06.408Z,61.10
2023-02-15T03:49:42.559Z,61.24
2023-02-15T03:52:13.584Z,61.28
2023-02-15T03:54:47.042Z,61.50
2023-02-15T03:57:37.177Z,61.54
2023-02-15T04:00:31.433Z,61.51
2023-02-15T04:03:23.712Z,61.65
2023-02-15T04:05:51.986Z,61.94
2023-02-15T04:08:21.565Z,61.70
2023-02-15T04:10:54.654Z,61.60
2023-02-15T04:13:24.219Z,61.52
2023-02-15T04:16:08.091Z,61.38
2023-02-15T04:18:57.992Z,61.34
2023-02-15T04:21:45.591Z,61.56
2023-02-15T04:24:33.868Z,61.52
2023-02-15T04:27:03.286Z,61.19
2023-02-15T04:29:32.379Z,61.57
2023-02-15T04:32:03.456Z,61.36
2023-02-15T04:34:31.920Z,61.55
2023-02-15T04:36:59.930Z,61.69
2023-02-15T04:39:29.397Z,61.86
2023-02-15T04:41:57.651Z,62.13
2023-02-15T04:44:25.826Z,62.22
2023-02-15T04:46:53.797Z,62.17
2023-02-15T04:49:22.165Z,61.85
2023-02-15T04:51:50.152Z,61.84
2023-02-15T04:54:21.371Z,61.74
2023-02-15T04:56:51.113Z,61.62
2023-02-15T04:59:19.174Z,62.26
2023-02-15T05:01:47.173Z,62.10
2023-02-15T05:04:15.648Z,62.05
2023-02-15T05:06:43.724Z,62.07
2023-02-15T05:09:14.459Z,61.89
2023-02-15T05:11:42.729Z,61.87
2023-02-15T05:14:12.006Z,61.89
2023-02-15T05:16:40.084Z,61.56
2023-02-15T05:19:10.028Z,61.28
2023-02-15T05:21:37.997Z,61.19
2023-02-15T05:24:26.418Z,61.75
2023-02-15T05:27:12.228Z,61.95
2023-02-15T05:29:42.073Z,61.74
2023-02-15T05:32:11.592Z,61.72
2023-02-15T05:34:39.664Z,61.79
2023-02-15T05:37:08.539Z,61.83
2023-02-15T05:39:36.829Z,61.97
2023-02-15T05:42:05.727Z,61.70
2023-02-15T05:44:33.709Z,61.68
2023-02-15T05:47:04.000Z,61.41
2023-02-15T05:49:32.305Z,61.54
2023-02-15T05:52:00.270Z,61.53
2023-02-15T05:54:28.657Z,61.73
2023-02-15T05:56:56.862Z,61.50
2023-02-15T05:59:24.949Z,61.69
2023-02-15T06:01:53.212Z,61.57
2023-02-15T06:04:22.788Z,61.56
2023-02-15T06:06:50.798Z,61.78
2023-02-15T06:09:20.762Z,61.62
2023-02-15T06:11:48.996Z,61.55
2023-02-15T06:14:17.265Z,61.52
2023-02-15T06:16:45.340Z,61.53
2023-02-15T06:19:13.743Z,61.54
2023-02-15T06:21:43.268Z,61.74
2023-02-15T06:24:11.608Z,61.52
2023-02-15T06:26:39.890Z,61.23
2023-02-15T06:29:07.933Z,61.24
2023-02-15T06:31:36.814Z,61.57
2023-02-15T06:34:08.319Z,61.93
2023-02-15T06:36:36.416Z,62.02
2023-02-15T06:39:06.390Z,61.89
2023-02-15T06:41:34.605Z,61.96
2023-02-15T06:44:02.712Z,61.82
2023-02-15T06:46:30.718Z,61.66
2023-02-15T06:48:59.079Z,61.34
2023-02-15T06:51:27.015Z,61.66
2023-02-15T06:53:55.008Z,61.54
2023-02-15T06:56:27.609Z,61.58
2023-02-15T06:58:55.668Z,61.64
2023-02-15T07:01:24.092Z,61.68
2023-02-15T07:03:52.253Z,61.75
2023-02-15T07:06:20.312Z,61.75
2023-02-15T07:08:48.766Z,61.75
2023-02-15T07:11:34.415Z,61.61
2023-02-15T07:14:04.210Z,61.54
2023-02-15T07:16:32.324Z,61.79
2023-02-15T07:19:00.308Z,61.78
2023-02-15T07:21:28.586Z,61.96
2023-02-15T07:23:59.265Z,62.05
2023-02-15T07:26:27.628Z,61.85
2023-02-15T07:28:55.996Z,61.81
2023-02-15T07:31:25.506Z,61.85
2023-02-15T07:33:53.709Z,61.45
2023-02-15T07:36:22.196Z,61.41
2023-02-15T07:38:50.181Z,61.51
2023-02-15T07:41:18.452Z,61.75
2023-02-15T07:43:47.064Z,61.67
2023-02-15T07:46:17.489Z,61.93
2023-02-15T07:48:50.225Z,61.42
2023-02-15T07:51:18.482Z,61.74
2023-02-15T07:53:46.663Z,62.04
2023-02-15T07:56:16.632Z,62.07
2023-02-15T07:58:53.910Z,62.09
2023-02-15T08:01:24.749Z,61.28
2023-02-15T08:03:55.424Z,61.69
2023-02-15T08:06:24.619Z,61.53
2023-02-15T08:08:53.289Z,60.52
2023-02-15T08:11:33.667Z,61.02
2023-02-15T08:14:04.951Z,61.21
2023-02-15T08:16:36.173Z,61.46
2023-02-15T08:19:08.752Z,61.25
2023-02-15T08:21:38.926Z,61.34
2023-02-15T08:24:08.487Z,60.98
2023-02-15T08:26:38.069Z,60.75
2023-02-15T08:29:07.594Z,60.99
2023-02-15T08:31:38.492Z,60.86
2023-02-15T08:34:08.114Z,60.88
2023-02-15T08:36:37.002Z,61.03
2023-02-15T08:39:07.545Z,60.98
2023-02-15T08:41:37.053Z,61.00
2023-02-15T08:44:07.633Z,60.93
2023-02-15T08:46:37.945Z,60.34
2023-02-15T08:49:08.275Z,60.54
2023-02-15T08:51:38.842Z,60.49
2023-02-15T08:54:09.576Z,60.59
2023-02-15T08:56:39.061Z,60.19
2023-02-15T08:59:08.453Z,59.78
2023-02-15T09:01:37.178Z,60.63
2023-02-15T09:04:09.681Z,60.00
2023-02-15T09:06:39.137Z,59.80
2023-02-15T09:09:07.608Z,60.68
2023-02-15T09:11:38.236Z,60.76
2023-02-15T09:14:09.168Z,60.51
2023-02-15T09:16:39.142Z,60.45
2023-02-15T09:19:09.544Z,59.86
2023-02-15T09:21:39.365Z,60.27
2023-02-15T09:24:10.084Z,59.59
2023-02-15T09:26:41.363Z,60.05
2023-02-15T09:29:10.342Z,58.80
2023-02-15T09:31:42.257Z,58.56
2023-02-15T09:34:12.181Z,59.88
2023-02-15T09:36:42.259Z,59.90
2023-02-15T09:39:12.858Z,59.83
2023-02-15T09:41:58.452Z,59.54
2023-02-15T09:44:43.168Z,58.51
2023-02-15T09:47:26.753Z,59.28
2023-02-15T09:50:03.717Z,59.91
2023-02-15T09:52:42.527Z,58.93
2023-02-15T09:55:24.754Z,59.70
2023-02-15T09:58:00.412Z,59.11
2023-02-15T10:00:37.389Z,58.82
2023-02-15T10:03:21.925Z,58.82
2023-02-15T10:06:06.396Z,58.42
2023-02-15T10:08:50.632Z,58.51
2023-02-15T10:11:40.885Z,58.74
2023-02-15T10:14:42.794Z,58.18
2023-02-15T10:17:23.193Z,57.01
2023-02-15T10:20:06.568Z,57.12
2023-02-15T10:22:48.650Z,57.86
2023-02-15T10:25:33.415Z,58.72
2023-02-15T10:28:07.494Z,58.25
2023-02-15T10:30:48.090Z,58.18
2023-02-15T10:33:33.035Z,58.03
2023-02-15T10:36:12.462Z,57.34
2023-02-15T10:38:45.776Z,56.69
2023-02-15T10:41:26.317Z,56.91
2023-02-15T10:44:07.937Z,57.47
2023-02-15T10:46:49.388Z,57.66
2023-02-15T10:49:28.557Z,57.73
2023-02-15T10:52:11.143Z,57.08
2023-02-15T10:54:48.392Z,57.41
2023-02-15T10:57:26.815Z,57.18
2023-02-15T11:00:10.412Z,57.27
2023-02-15T11:03:01.375Z,57.03
2023-02-15T11:05:40.525Z,57.01
2023-02-15T11:08:12.347Z,57.14
2023-02-15T11:10:46.511Z,57.43
2023-02-15T11:13:18.168Z,56.70
2023-02-15T11:15:49.850Z,56.86
2023-02-15T11:18:28.330Z,56.91
2023-02-15T11:21:01.808Z,56.74
2023-02-15T11:23:30.668Z,57.11
2023-02-15T11:26:02.549Z,56.73
2023-02-15T11:28:36.031Z,56.74
2023-02-15T11:31:16.897Z,56.25
2023-02-15T11:33:48.793Z,55.91
2023-02-15T11:36:21.395Z,55.59
2023-02-15T11:38:54.557Z,55.70
2023-02-15T11:41:30.408Z,55.06
2023-02-15T11:44:05.528Z,55.24
2023-02-15T11:46:34.380Z,54.48
2023-02-15T11:49:03.930Z,53.29
2023-02-15T11:51:32.012Z,52.92
2023-02-15T11:54:00.008Z,53.91
2023-02-15T11:56:29.755Z,54.16
2023-02-15T11:59:00.443Z,53.66
2023-02-15T12:01:33.923Z,53.74
2023-02-15T12:04:08.838Z,53.08
2023-02-15T12:06:43.246Z,53.56
2023-02-15T12:09:23.703Z,53.58
2023-02-15T12:11:53.315Z,53.01
2023-02-15T12:14:21.687Z,53.65
2023-02-15T12:16:52.406Z,53.31
2023-02-15T12:19:32.553Z,53.18
2023-02-15T12:22:04.359Z,52.27
2023-02-15T12:24:36.582Z,53.84
2023-02-15T12:27:08.638Z,53.39
2023-02-15T12:29:41.734Z,53.66
2023-02-15T12:32:13.652Z,52.71
2023-02-15T12:34:44.720Z,53.19
2023-02-15T12:37:19.475Z,53.99
2023-02-15T12:39:56.247Z,52.33
2023-02-15T12:42:27.403Z,51.46
2023-02-15T12:45:00.999Z,52.93
2023-02-15T12:47:31.645Z,52.21
2023-02-15T12:50:17.882Z,53.32
2023-02-15T12:52:49.631Z,51.32
2023-02-15T12:55:24.642Z,52.95
2023-02-15T12:58:10.636Z,51.95
2023-02-15T13:00:39.177Z,49.69
2023-02-15T13:03:19.186Z,52.35
2023-02-15T13:05:49.942Z,50.74
2023-02-15T13:08:20.737Z,52.59
2023-02-15T13:10:56.477Z,52.08
2023-02-15T13:13:27.996Z,50.25
2023-02-15T13:16:00.282Z,51.78
2023-02-15T13:18:34.734Z,51.98
2023-02-15T13:21:08.631Z,51.38
2023-02-15T13:23:37.551Z,51.51
2023-02-15T13:26:12.978Z,52.12
2023-02-15T13:28:46.379Z,50.59
2023-02-15T13:31:17.137Z,50.61
2023-02-15T13:33:49.131Z,51.55
2023-02-15T13:36:25.867Z,52.17
2023-02-15T13:39:06.496Z,50.36
2023-02-15T13:41:39.637Z,50.16
2023-02-15T13:44:17.548Z,51.95
2023-02-15T13:46:59.192Z,50.03
2023-02-15T13:49:41.703Z,50.79
2023-02-15T13:52:20.387Z,50.17
2023-02-15T13:55:08.787Z,50.53
2023-02-15T13:58:03.708Z,50.12
2023-02-15T14:00:42.590Z,50.41
2023-02-15T14:03:37.514Z,50.78
2023-02-15T14:06:19.279Z,50.22
2023-02-15T14:08:59.825Z,50.68
2023-02-15T14:11:36.403Z,50.77
2023-02-15T14:14:46.939Z,51.80
2023-02-15T14:17:25.410Z,49.00
2023-02-15T14:19:59.309Z,50.05
2023-02-15T14:22:34.730Z,51.74
2023-02-15T14:25:18.157Z,50.63
2023-02-15T14:27:56.795Z,51.78
2023-02-15T14:30:29.399Z,51.77
2023-02-15T14:33:07.000Z,52.34
2023-02-15T14:35:36.114Z,51.41
2023-02-15T14:38:09.577Z,52.27
2023-02-15T14:41:04.346Z,52.06
2023-02-15T14:43:46.515Z,52.15
2023-02-15T14:46:23.770Z,51.61
2023-02-15T14:48:55.760Z,52.23
2023-02-15T14:51:59.961Z,52.50
2023-02-15T14:55:02.967Z,51.55
2023-02-15T14:57:36.760Z,50.65
2023-02-15T15:00:32.479Z,51.85
2023-02-15T15:03:02.205Z,50.08
2023-02-15T15:05:36.907Z,51.92
2023-02-15T15:08:07.325Z,52.04
2023-02-15T15:10:41.645Z,51.86
2023-02-15T15:13:53.603Z,51.86
2023-02-15T15:16:48.085Z,50.96
2023-02-15T15:20:05.121Z,51.24
2023-02-15T15:22:36.034Z,50.00
2023-02-15T15:25:06.246Z,51.56
2023-02-15T15:27:47.049Z,51.30
2023-02-15T15:30:50.933Z,51.14
2023-02-15T15:34:04.585Z,51.10
2023-02-15T15:36:55.156Z,51.38
2023-02-15T15:39:56.408Z,51.28
2023-02-15T15:42:35.013Z,51.17
2023-02-15T15:45:21.299Z,50.94
2023-02-15T15:48:07.281Z,52.03
2023-02-15T15:50:36.041Z,52.18
2023-02-15T15:53:05.535Z,52.35
2023-02-15T15:55:38.337Z,52.65
2023-02-15T15:58:09.267Z,51.97
2023-02-15T16:00:41.767Z,52.49
2023-02-15T16:03:16.528Z,52.74
2023-02-15T16:05:44.576Z,52.01
2023-02-15T16:08:12.959Z,52.62
2023-02-15T16:10:42.811Z,52.15
2023-02-15T16:13:16.381Z,52.08
2023-02-15T16:15:50.519Z,52.11
2023-02-15T16:18:19.381Z,52.42
2023-02-15T16:20:53.933Z,52.45
2023-02-15T16:23:46.830Z,52.37
2023-02-15T16:26:28.004Z,52.78
2023-02-15T16:28:56.289Z,53.30
2023-02-15T16:31:25.092Z,52.84
2023-02-15T16:33:55.923Z,52.66
2023-02-15T16:36:25.961Z,52.56
2023-02-15T16:39:12.544Z,52.80
2023-02-15T16:41:46.874Z,52.47
2023-02-15T16:44:19.284Z,53.02
2023-02-15T16:46:50.436Z,52.95
2023-02-15T16:49:20.429Z,53.07
2023-02-15T16:51:58.644Z,52.76
2023-02-15T16:54:28.292Z,52.54
2023-02-15T16:56:58.083Z,52.69
2023-02-15T16:59:36.521Z,52.41
2023-02-15T17:02:07.694Z,52.27
2023-02-15T17:04:38.998Z,52.84
2023-02-15T17:07:15.619Z,52.81
2023-02-15T17:09:51.804Z,53.02
2023-02-15T17:12:48.042Z,52.74
2023-02-15T17:15:28.362Z,53.69
2023-02-15T17:18:00.568Z,53.92
2023-02-15T17:20:32.103Z,53.49
2023-02-15T17:23:02.085Z,53.47
2023-02-15T17:25:37.966Z,53.18
2023-02-15T17:28:17.960Z,53.46
2023-02-15T17:30:47.321Z,53.29
2023-02-15T17:33:29.811Z,53.32
2023-02-15T17:36:06.401Z,53.82
2023-02-15T17:38:35.196Z,53.43
2023-02-15T17:41:03.587Z,53.24
2023-02-15T17:43:33.389Z,53.14
2023-02-15T17:46:02.137Z,53.20
2023-02-15T17:48:34.180Z,53.40
2023-02-15T17:51:05.406Z,53.51
2023-02-15T17:53:34.044Z,53.46
2023-02-15T17:56:10.655Z,53.33
2023-02-15T17:58:40.910Z,53.11
2023-02-15T18:01:38.212Z,53.05
2023-02-15T18:04:27.075Z,52.85
2023-02-15T18:07:13.173Z,53.28
2023-02-15T18:09:59.510Z,53.07
2023-02-15T18:12:29.507Z,53.00
2023-02-15T18:15:00.714Z,53.29
2023-02-15T18:17:31.370Z,53.51
2023-02-15T18:20:01.474Z,53.56
2023-02-15T18:22:30.918Z,53.44
2023-02-15T18:25:00.102Z,53.27
2023-02-15T18:27:28.502Z,53.01
2023-02-15T18:29:56.728Z,53.00
2023-02-15T18:32:32.117Z,52.95
2023-02-15T18:35:00.642Z,53.01
2023-02-15T18:37:33.101Z,53.07
2023-02-15T18:40:04.143Z,53.13
2023-02-15T18:42:35.165Z,53.24
2023-02-15T18:45:14.997Z,53.32
2023-02-15T18:47:44.920Z,53.36
2023-02-15T18:50:14.482Z,53.36
2023-02-15T18:52:46.167Z,53.57
2023-02-15T18:55:18.637Z,53.75
2023-02-15T18:57:48.052Z,53.53
2023-02-15T19:00:19.420Z,53.47
2023-02-15T19:02:49.251Z,53.61
2023-02-15T19:05:18.374Z,54.02
2023-02-15T19:07:48.545Z,54.44
2023-02-15T19:10:20.148Z,54.20
2023-02-15T19:12:49.382Z,54.48
2023-02-15T19:15:19.437Z,54.08
2023-02-15T19:17:48.908Z,54.26
2023-02-15T19:20:20.395Z,54.45
2023-02-15T19:22:50.088Z,54.36
2023-02-15T19:25:22.586Z,54.41
2023-02-15T19:27:51.161Z,54.62
2023-02-15T19:30:22.797Z,54.38
2023-02-15T19:32:53.608Z,54.30
2023-02-15T19:35:23.854Z,54.36
2023-02-15T19:37:54.160Z,54.81
2023-02-15T19:40:24.898Z,54.80
2023-02-15T19:42:53.003Z,54.87
2023-02-15T19:45:23.964Z,54.75
2023-02-15T19:47:55.212Z,54.80
2023-02-15T19:50:25.613Z,54.39
2023-02-15T19:52:54.177Z,54.29
2023-02-15T19:55:25.053Z,54.31
2023-02-15T19:57:55.809Z,54.31
2023-02-15T20:00:27.326Z,54.29
2023-02-15T20:02:59.135Z,54.22
2023-02-15T20:05:28.933Z,54.11
2023-02-15T20:07:58.160Z,54.10
2023-02-15T20:10:29.248Z,54.08
2023-02-15T20:12:58.237Z,54.11
2023-02-15T20:15:28.455Z,54.28
2023-02-15T20:17:59.423Z,54.31
2023-02-15T20:20:35.369Z,54.35
2023-02-15T20:23:03.573Z,54.65
2023-02-15T20:25:34.106Z,54.67
2023-02-15T20:28:03.124Z,54.78
2023-02-15T20:30:33.433Z,54.96
2023-02-15T20:33:02.857Z,55.13
2023-02-15T20:35:31.060Z,55.52
2023-02-15T20:38:00.493Z,55.37
2023-02-15T20:40:30.784Z,55.21
2023-02-15T20:42:59.533Z,55.19
2023-02-15T20:45:30.510Z,55.15
2023-02-15T20:47:59.551Z,55.24
2023-02-15T20:50:31.841Z,55.21
2023-02-15T20:53:02.691Z,55.38
2023-02-15T20:55:33.009Z,55.50
2023-02-15T20:58:01.108Z,55.42
2023-02-15T21:00:32.249Z,55.48
2023-02-15T21:03:02.392Z,55.57
2023-02-15T21:05:33.690Z,55.70
2023-02-15T21:08:02.596Z,55.87
2023-02-15T21:10:32.613Z,55.67
2023-02-15T21:13:03.368Z,55.63
2023-02-15T21:15:34.468Z,55.41
2023-02-15T21:18:05.112Z,55.42
2023-02-15T21:20:37.412Z,56.33
2023-02-15T21:23:06.919Z,55.83
2023-02-15T21:25:36.964Z,55.85
2023-02-15T21:28:05.964Z,55.93
2023-02-15T21:30:34.121Z,55.58
2023-02-15T21:33:02.405Z,55.54
2023-02-15T21:35:30.518Z,55.74
2023-02-15T21:38:00.062Z,55.74
2023-02-15T21:40:31.798Z,55.76
2023-02-15T21:43:17.937Z,55.79
2023-02-15T21:46:03.750Z,55.97
2023-02-15T21:48:31.750Z,55.97
2023-02-15T21:51:17.621Z,55.90
2023-02-15T21:53:47.663Z,55.97
2023-02-15T21:56:18.763Z,55.97
2023-02-15T21:58:50.911Z,55.82
2023-02-15T22:01:23.671Z,55.65
2023-02-15T22:03:53.321Z,56.04
2023-02-15T22:06:21.700Z,55.96
2023-02-15T22:08:51.223Z,55.77
2023-02-15T22:11:22.580Z,56.16
2023-02-15T22:13:51.664Z,56.07
2023-02-15T22:16:22.087Z,55.98
2023-02-15T22:18:50.475Z,56.03
2023-02-15T22:21:19.198Z,56.41
2023-02-15T22:23:47.976Z,56.30
2023-02-15T22:26:23.413Z,56.46
2023-02-15T22:28:52.226Z,56.55
2023-02-15T22:31:22.983Z,56.26
2023-02-15T22:33:51.537Z,56.44
2023-02-15T22:36:25.688Z,56.41
2023-02-15T22:38:55.177Z,56.54
2023-02-15T22:41:28.385Z,56.20
2023-02-15T22:43:57.738Z,56.50
2023-02-15T22:46:27.108Z,56.63
2023-02-15T22:48:55.119Z,56.62
2023-02-15T22:51:25.883Z,56.86
2023-02-15T22:53:53.899Z,56.61
2023-02-15T22:56:27.253Z,57.03
2023-02-15T22:59:02.237Z,56.84
2023-02-15T23:01:32.825Z,56.77
2023-02-15T23:04:03.967Z,56.94
2023-02-15T23:06:32.509Z,56.96
2023-02-15T23:09:01.377Z,56.85
2023-02-15T23:11:30.814Z,57.32
2023-02-15T23:13:58.811Z,56.97
2023-02-15T23:16:27.156Z,56.74
2023-02-15T23:18:55.551Z,56.42
2023-02-15T23:21:25.702Z,57.06
2023-02-15T23:23:57.547Z,56.79
2023-02-15T23:26:28.928Z,57.16
2023-02-15T23:29:00.529Z,56.93
2023-02-15T23:31:32.105Z,56.97
2023-02-15T23:34:02.485Z,57.26
2023-02-15T23:36:33.074Z,57.32
2023-02-15T23:39:26.494Z,57.34
2023-02-15T23:41:54.496Z,57.46
2023-02-15T23:44:24.197Z,56.83
2023-02-15T23:46:52.422Z,56.63
2023-02-15T23:49:21.069Z,56.75
2023-02-15T23:51:51.880Z,56.59
2023-02-15T23:54:22.381Z,56.75
2023-02-15T23:56:53.352Z,56.71
2023-02-15T23:59:24.882Z,56.42
